Time;durP1;ratioP1;P1;durP2;ratioP2;P2;SDS_P1;SDS_P2;PMS_P1;PMS_P2;Temp;Humidity;BMP_temperature;BMP_pressure;BME280_temperature;BME280_humidity;BME280_pressure;Samples;Min_cycle;Max_cycle;Signal;HPM_P1;HPM_P2
2022/06/25 00:02:19;;;;;;;0.20;0.20;;;;;;;17.16;63.58;99280.38;4773909;30;20059;-92
2022/06/25 00:07:33;;;;;;;0.25;0.25;;;;;;;17.17;63.30;99291.00;4773549;30;20083;-93
2022/06/25 00:10:02;;;;;;;0.30;0.30;;;;;;;17.13;63.98;99292.66;4772776;30;20055;-93
2022/06/25 00:12:32;;;;;;;0.30;0.30;;;;;;;17.11;63.77;99300.28;4773160;30;20438;-93
2022/06/25 00:15:05;;;;;;;0.30;0.30;;;;;;;17.05;63.85;99304.16;4771573;30;20066;-93
2022/06/25 00:17:33;;;;;;;0.20;0.20;;;;;;;17.01;63.92;99303.06;4772634;30;20150;-93
2022/06/25 00:20:03;;;;;;;0.22;0.22;;;;;;;17.03;64.21;99311.78;4773537;30;20051;-94
2022/06/25 00:22:30;;;;;;;0.30;0.30;;;;;;;16.98;64.18;99301.72;4773230;30;20055;-94
2022/06/25 00:24:58;;;;;;;0.30;0.30;;;;;;;17.00;64.49;99312.34;4763858;30;20079;-92
2022/06/25 00:27:25;;;;;;;0.30;0.30;;;;;;;16.98;64.08;99304.44;4778580;30;20089;-92
2022/06/25 00:29:56;;;;;;;0.30;0.30;;;;;;;16.91;64.53;99312.09;4777394;30;20435;-93
2022/06/25 00:32:23;;;;;;;0.22;0.22;;;;;;;16.85;64.72;99314.03;4779656;30;20119;-93
2022/06/25 00:34:50;;;;;;;0.30;0.30;;;;;;;16.78;65.01;99310.78;4771798;30;20047;-94
2022/06/25 00:37:17;;;;;;;0.30;0.30;;;;;;;16.76;65.40;99323.03;4784557;30;20535;-93
2022/06/25 00:39:45;;;;;;;0.30;0.30;;;;;;;16.78;65.26;99320.88;4774674;30;20121;-93
2022/06/25 00:42:14;;;;;;;0.20;0.20;;;;;;;16.76;65.42;99326.59;4775277;30;20048;-94
2022/06/25 00:44:41;;;;;;;0.20;0.20;;;;;;;16.81;65.35;99340.25;4791897;30;20067;-93
2022/06/25 00:47:10;;;;;;;0.30;0.30;;;;;;;16.76;65.37;99328.47;4786124;30;20038;-94
2022/06/25 00:49:39;;;;;;;0.30;0.30;;;;;;;16.77;65.48;99332.84;4785986;30;20125;-94
2022/06/25 00:52:11;;;;;;;0.28;0.28;;;;;;;16.69;66.02;99329.59;4776089;30;20056;-95
2022/06/25 00:54:44;;;;;;;0.30;0.30;;;;;;;16.65;66.25;99333.97;4774092;30;20419;-94
2022/06/25 00:57:13;;;;;;;0.30;0.30;;;;;;;16.64;65.75;99339.72;4775099;30;20083;-94
2022/06/25 00:59:43;;;;;;;0.20;0.20;;;;;;;16.68;65.79;99343.50;4774761;30;20079;-95
2022/06/25 01:02:10;;;;;;;0.20;0.20;;;;;;;16.69;65.71;99339.69;4775133;30;20082;-95
2022/06/25 01:04:38;;;;;;;0.20;0.20;;;;;;;16.65;66.06;99350.31;4776392;30;20092;-94
2022/06/25 01:07:06;;;;;;;0.30;0.30;;;;;;;16.67;65.67;99347.31;4776621;30;20259;-95
2022/06/25 01:09:34;;;;;;;0.30;0.30;;;;;;;16.65;65.83;99360.41;4779015;30;20056;-94
2022/06/25 01:12:01;;;;;;;0.22;0.22;;;;;;;16.62;66.08;99359.03;4777242;30;20111;-93
2022/06/25 01:14:30;;;;;;;0.30;0.30;;;;;;;16.60;66.33;99357.69;4791284;30;20146;-95
2022/06/25 01:16:58;;;;;;;0.30;0.30;;;;;;;16.60;66.48;99354.97;4774158;30;20063;-95
2022/06/25 01:19:26;;;;;;;0.30;0.30;;;;;;;16.62;66.48;99366.41;4773053;30;20146;-94
2022/06/25 01:21:59;;;;;;;0.30;0.30;;;;;;;16.62;66.55;99363.69;4787568;30;20052;-95
2022/06/25 01:24:26;;;;;;;0.30;0.30;;;;;;;16.59;66.49;99359.59;4772955;30;20154;-95
2022/06/25 01:26:53;;;;;;;0.30;0.30;;;;;;;16.64;66.55;99369.69;4773375;30;20081;-93
2022/06/25 01:29:21;;;;;;;0.30;0.30;;;;;;;16.64;66.23;99369.69;4772513;30;20546;-93
2022/06/25 01:31:48;;;;;;;0.20;0.20;;;;;;;16.66;66.22;99372.91;4774594;30;20059;-95
2022/06/25 01:34:15;;;;;;;0.30;0.30;;;;;;;16.67;66.19;99374.56;4777513;30;20048;-94
2022/06/25 01:36:42;;;;;;;0.30;0.30;;;;;;;16.68;66.23;99374.31;4780442;30;20085;-93
2022/06/25 01:39:09;;;;;;;0.20;0.20;;;;;;;16.73;66.04;99376.19;4780934;30;20056;-94
2022/06/25 01:41:41;;;;;;;0.25;0.25;;;;;;;16.76;65.96;99383.84;4780903;30;20112;-95
2022/06/25 01:44:12;;;;;;;0.30;0.30;;;;;;;16.77;65.78;99388.19;4777233;30;20086;-95
2022/06/25 01:46:39;;;;;;;0.30;0.30;;;;;;;16.75;65.80;99390.34;4774720;30;20064;-94
2022/06/25 01:49:10;;;;;;;0.30;0.30;;;;;;;16.77;65.93;99385.44;4775183;30;20420;-96
2022/06/25 01:51:41;;;;;;;0.30;0.30;;;;;;;16.76;66.19;99386.56;4775744;30;20079;-95
2022/06/25 01:54:09;;;;;;;0.30;0.30;;;;;;;16.79;65.76;99382.50;4774267;30;20056;-94
2022/06/25 01:56:37;;;;;;;0.20;0.20;;;;;;;16.83;65.74;99383.56;4774149;30;20052;-93
2022/06/25 01:59:04;;;;;;;0.30;0.30;;;;;;;16.88;65.59;99386.25;4758944;30;20059;-94
2022/06/25 02:01:34;;;;;;;0.30;0.30;;;;;;;16.95;65.55;99386.78;4775402;30;20081;-95
2022/06/25 02:04:01;;;;;;;0.30;0.30;;;;;;;16.99;65.66;99381.59;4762208;30;20074;-95
2022/06/25 02:06:29;;;;;;;0.20;0.20;;;;;;;17.03;65.40;99380.75;4778808;30;20113;-94
2022/06/25 02:09:00;;;;;;;0.28;0.28;;;;;;;17.08;65.11;99385.38;4777633;30;20052;-95
2022/06/25 02:11:27;;;;;;;0.20;0.20;;;;;;;17.13;64.91;99393.56;4777338;30;20151;-94
2022/06/25 02:13:54;;;;;;;0.30;0.30;;;;;;;17.18;64.75;99385.34;4775423;30;20055;-93
2022/06/25 02:16:21;;;;;;;0.30;0.30;;;;;;;17.24;64.48;99384.25;4776789;30;20071;-95
2022/06/25 02:18:48;;;;;;;0.30;0.30;;;;;;;17.28;64.77;99385.31;4778465;30;20420;-95
2022/06/25 02:21:19;;;;;;;0.30;0.30;;;;;;;17.30;64.99;99387.78;4763302;30;20051;-96
2022/06/25 02:23:49;;;;;;;0.30;0.30;;;;;;;17.37;65.18;99388.28;4779333;30;20052;-95
2022/06/25 02:26:17;;;;;;;0.30;0.30;;;;;;;17.43;64.70;99384.44;4776936;30;20105;-94
2022/06/25 02:28:44;;;;;;;0.30;0.30;;;;;;;17.54;64.33;99377.00;4777158;30;20502;-95
2022/06/25 02:31:11;;;;;;;0.30;0.30;;;;;;;17.61;63.89;99377.50;4779997;30;20115;-95
2022/06/25 02:33:39;;;;;;;0.20;0.20;;;;;;;17.67;63.86;99381.00;4781400;30;20553;-95
2022/06/25 02:36:06;;;;;;;0.30;0.30;;;;;;;17.75;63.72;99381.25;4780565;30;20115;-94
2022/06/25 02:38:34;;;;;;;0.30;0.30;;;;;;;17.86;63.33;99386.69;4790665;29;20525;-94
2022/06/25 02:41:04;;;;;;;0.30;0.30;;;;;;;17.92;63.27;99388.25;4777866;30;20147;-96
2022/06/25 02:43:35;;;;;;;0.30;0.30;;;;;;;17.95;63.13;99379.50;4778374;30;20062;-95
2022/06/25 02:46:14;;;;;;;0.30;0.30;;;;;;;18.05;63.04;99386.81;4763112;30;20082;-96
2022/06/25 02:48:41;;;;;;;0.30;0.30;;;;;;;18.16;62.84;99391.09;4776054;30;20060;-94
2022/06/25 02:51:10;;;;;;;0.20;0.20;;;;;;;18.26;62.61;99392.94;4775775;30;20052;-94
2022/06/25 02:53:38;;;;;;;0.30;0.30;;;;;;;18.34;62.59;99389.59;4776884;30;20067;-94
2022/06/25 02:58:55;;;;;;;0.30;0.30;;;;;;;18.50;62.03;99391.06;4791132;30;20465;-95
2022/06/25 03:01:39;;;;;;;0.20;0.20;;;;;;;18.56;61.70;99398.13;4776714;30;20059;-96
2022/06/25 03:04:07;;;;;;;0.30;0.30;;;;;;;18.68;61.44;99399.66;4764198;30;20060;-95
2022/06/25 03:06:36;;;;;;;0.20;0.20;;;;;;;18.82;61.36;99408.84;4767485;30;20062;-95
2022/06/25 03:09:18;;;;;;;0.30;0.30;;;;;;;18.96;60.82;99411.72;4782642;30;20048;-94
2022/06/25 03:11:46;;;;;;;0.30;0.30;;;;;;;19.01;60.55;99401.53;4784370;30;20059;-92
2022/06/25 03:14:16;;;;;;;0.30;0.30;;;;;;;19.24;60.18;99413.59;4768958;30;20083;-94
2022/06/25 03:16:44;;;;;;;0.30;0.30;;;;;;;19.36;59.45;99420.56;4786965;30;20083;-94
2022/06/25 03:19:15;;;;;;;0.22;0.22;;;;;;;19.52;59.00;99418.44;4790384;30;20105;-93
2022/06/25 03:22:10;;;;;;;0.30;0.30;;;;;;;19.60;58.30;99415.06;4777525;30;20055;-94
2022/06/25 03:24:51;;;;;;;0.20;0.20;;;;;;;19.76;58.29;99423.91;4792532;29;20058;-93
2022/06/25 03:27:18;;;;;;;0.20;0.20;;;;;;;19.86;58.58;99424.56;4786578;30;20055;-95
2022/06/25 03:29:49;;;;;;;0.20;0.20;;;;;;;19.99;58.74;99428.50;4762544;30;20051;-94
2022/06/25 03:32:18;;;;;;;0.20;0.20;;;;;;;20.06;58.06;99428.94;4761548;30;20520;-94
2022/06/25 03:35:00;;;;;;;0.30;0.30;;;;;;;20.13;57.64;99429.38;4793635;30;20071;-95
2022/06/25 03:37:28;;;;;;;0.20;0.20;;;;;;;20.26;57.69;99433.31;4777910;30;20083;-95
2022/06/25 03:39:57;;;;;;;0.20;0.20;;;;;;;20.38;56.98;99440.22;4779526;30;20470;-95
2022/06/25 03:42:25;;;;;;;0.20;0.20;;;;;;;20.49;57.27;99441.72;4781149;30;20075;-94
2022/06/25 03:45:08;;;;;;;0.20;0.20;;;;;;;20.53;56.63;99438.06;4778053;30;20055;-94
2022/06/25 03:47:35;;;;;;;0.20;0.20;;;;;;;20.64;55.90;99441.47;4778622;30;20081;-95
2022/06/25 03:50:06;;;;;;;0.20;0.20;;;;;;;20.70;55.91;99443.00;4794099;30;20075;-94
2022/06/25 03:52:33;;;;;;;0.20;0.20;;;;;;;20.76;55.16;99441.81;4765465;30;20059;-96
2022/06/25 03:55:00;;;;;;;0.20;0.20;;;;;;;20.84;55.40;99442.22;4779143;30;20058;-95
2022/06/25 03:57:29;;;;;;;0.20;0.20;;;;;;;20.91;54.44;99451.69;4778915;30;20047;-93
2022/06/25 04:00:10;;;;;;;0.20;0.20;;;;;;;20.88;53.93;99441.31;4777847;30;20047;-95
2022/06/25 04:02:53;;;;;;;0.30;0.30;;;;;;;20.97;53.76;99442.25;4770828;30;20056;-95
2022/06/25 04:05:54;;;;;;;0.30;0.30;;;;;;;21.04;53.34;99452.84;4784573;30;20059;-94
2022/06/25 04:08:39;;;;;;;0.20;0.20;;;;;;;21.14;53.20;99447.16;4767842;30;20062;-93
2022/06/25 04:11:12;;;;;;;0.20;0.20;;;;;;;21.23;53.09;99454.69;4764988;30;20055;-95
2022/06/25 04:13:43;;;;;;;;;;;;;;;21.26;53.26;99454.88;4765443;30;20089;-94
2022/06/25 04:16:12;;;;;;;0.20;0.20;;;;;;;21.26;52.75;99457.63;4784498;30;19930;-93
2022/06/25 04:18:40;;;;;;;0.20;0.20;;;;;;;21.32;52.66;99458.31;4787810;30;20056;-92
2022/06/25 04:21:17;;;;;;;0.20;0.20;;;;;;;21.40;52.15;99463.16;4774320;30;20064;-94
2022/06/25 04:23:51;;;;;;;0.20;0.20;;;;;;;21.44;51.87;99458.66;4789181;30;20112;-93
2022/06/25 04:26:27;;;;;;;0.30;0.30;;;;;;;21.49;51.67;99468.75;4767390;30;20524;-93
2022/06/25 04:29:03;;;;;;;0.28;0.28;;;;;;;21.53;51.67;99461.53;4765104;30;20052;-94
2022/06/25 04:31:57;;;;;;;0.20;0.20;;;;;;;21.54;51.69;99455.72;4777400;30;20067;-95
2022/06/25 04:34:44;;;;;;;0.20;0.20;;;;;;;21.67;51.83;99464.25;4772723;30;20055;-93
2022/06/25 04:37:13;;;;;;;0.30;0.30;;;;;;;21.77;52.04;99462.09;4782251;30;20090;-92
2022/06/25 04:39:46;;;;;;;0.20;0.20;;;;;;;21.84;52.03;99467.19;4783309;29;20060;-92
2022/06/25 04:42:23;;;;;;;0.20;0.20;;;;;;;21.83;51.44;99473.81;4772354;29;20086;-94
2022/06/25 04:45:08;;;;;;;0.20;0.20;;;;;;;21.86;51.63;99463.00;4771428;30;20109;-94
2022/06/25 04:48:15;;;;;;;0.30;0.30;;;;;;;21.98;50.98;99465.22;4765491;30;20060;-93
2022/06/25 04:51:08;;;;;;;0.20;0.20;;;;;;;22.03;50.30;99470.59;4785961;30;20056;-94
2022/06/25 04:53:57;;;;;;;0.30;0.30;;;;;;;22.02;50.09;99465.41;4767538;30;20064;-94
2022/06/25 04:56:47;;;;;;;0.20;0.20;;;;;;;22.03;49.85;99470.59;4779637;30;20059;-92
2022/06/25 05:02:40;;;;;;;0.20;0.20;;;;;;;22.24;50.10;99472.91;4760772;30;20101;-94
2022/06/25 05:05:14;;;;;;;0.20;0.20;;;;;;;22.35;49.13;99485.28;4749379;30;20047;-93
2022/06/25 05:08:04;;;;;;;0.20;0.20;;;;;;;22.31;49.61;99465.06;4771951;30;20051;-94
2022/06/25 05:10:32;;;;;;;0.20;0.20;;;;;;;22.47;48.49;99477.31;4774597;30;20052;-94
2022/06/25 05:13:14;;;;;;;0.20;0.20;;;;;;;22.55;48.76;99464.75;4771746;30;20057;-93
2022/06/25 05:15:47;;;;;;;0.20;0.20;;;;;;;22.60;48.70;99459.13;4776153;30;20067;-90
2022/06/25 05:18:15;;;;;;;0.20;0.20;;;;;;;22.77;48.42;99485.94;4768312;30;20060;-94
2022/06/25 05:20:43;;;;;;;0.20;0.20;;;;;;;22.83;47.83;99484.66;4769606;30;20052;-93
2022/06/25 05:23:17;;;;;;;0.20;0.20;;;;;;;22.86;48.31;99469.47;4769677;30;20056;-92
2022/06/25 05:25:44;;;;;;;0.20;0.20;;;;;;;22.96;47.80;99476.66;4767381;30;20147;-93
2022/06/25 05:28:15;;;;;;;0.20;0.20;;;;;;;23.03;47.35;99472.34;4849017;24;20034;-94
2022/06/25 05:30:49;;;;;;;0.20;0.20;;;;;;;23.17;46.65;99479.69;4790493;30;20085;-95
2022/06/25 05:33:41;;;;;;;0.20;0.20;;;;;;;23.29;46.22;99486.22;4758307;30;20680;-92
2022/06/25 05:36:09;;;;;;;0.20;0.20;;;;;;;23.35;46.09;99475.91;4766350;29;20056;-95
2022/06/25 05:38:38;;;;;;;0.20;0.20;;;;;;;23.47;45.64;99491.81;4765174;30;20079;-90
2022/06/25 05:41:08;;;;;;;0.20;0.20;;;;;;;23.43;45.50;99485.34;4750777;30;20060;-86
2022/06/25 05:43:36;;;;;;;0.20;0.20;;;;;;;23.54;44.92;99492.16;4769339;30;20052;-90
2022/06/25 05:46:04;;;;;;;0.20;0.20;;;;;;;23.48;44.87;99497.00;4756103;30;20048;-93
2022/06/25 05:48:33;;;;;;;0.20;0.20;;;;;;;23.56;44.61;99495.41;4756218;30;20093;-92
2022/06/25 05:51:01;;;;;;;0.20;0.20;;;;;;;23.68;44.64;99481.03;4793946;24;20070;-93
2022/06/25 05:53:28;;;;;;;0.20;0.20;;;;;;;23.73;45.21;99502.97;4781737;30;20075;-91
2022/06/25 05:55:57;;;;;;;0.20;0.20;;;;;;;23.74;44.59;99499.06;4783192;30;20454;-93
2022/06/25 05:58:24;;;;;;;0.22;0.22;;;;;;;23.78;44.92;99498.09;4786456;30;20056;-90
2022/06/25 06:00:51;;;;;;;0.20;0.20;;;;;;;23.91;44.43;99503.81;4771737;30;20151;-94
2022/06/25 06:03:18;;;;;;;0.20;0.20;;;;;;;24.05;44.67;99501.72;4777249;30;20051;-92
2022/06/25 06:05:45;;;;;;;0.20;0.20;;;;;;;24.00;44.49;99504.63;4773011;30;20119;-94
2022/06/25 06:08:13;;;;;;;0.20;0.20;;;;;;;24.06;44.83;99508.88;4765079;30;20063;-91
2022/06/25 06:10:39;;;;;;;0.20;0.20;;;;;;;24.22;43.69;99510.00;4790876;30;20107;-94
2022/06/25 06:13:07;;;;;;;0.20;0.20;;;;;;;24.25;43.03;99510.50;4780774;29;20091;-92
2022/06/25 06:15:38;;;;;;;0.20;0.20;;;;;;;24.34;42.77;99511.31;4782322;30;20052;-94
2022/06/25 06:18:05;;;;;;;0.20;0.20;;;;;;;24.30;43.04;99497.34;4786300;29;20056;-93
2022/06/25 06:20:37;;;;;;;0.20;0.20;;;;;;;24.40;41.85;99508.06;4773092;30;20063;-93
2022/06/25 06:23:05;;;;;;;0.20;0.20;;;;;;;24.53;42.90;99503.56;4765458;30;20059;-92
2022/06/25 06:25:47;;;;;;;0.20;0.20;;;;;;;24.54;41.82;99499.66;4775069;30;20145;-93
2022/06/25 06:28:16;;;;;;;0.20;0.20;;;;;;;24.57;42.03;99514.75;4780373;29;20064;-95
2022/06/25 06:30:46;;;;;;;0.20;0.20;;;;;;;24.65;42.87;99503.72;4776219;30;20059;-93
2022/06/25 06:33:13;;;;;;;0.20;0.20;;;;;;;24.77;42.78;99502.25;4785454;29;20060;-90
2022/06/25 06:35:41;;;;;;;0.20;0.20;;;;;;;25.02;41.91;99508.84;4792684;30;20103;-94
2022/06/25 06:38:08;;;;;;;0.20;0.20;;;;;;;25.17;40.92;99510.28;4776887;30;20063;-91
2022/06/25 06:40:35;;;;;;;0.20;0.20;;;;;;;25.25;41.48;99502.00;4758300;30;20060;-94
2022/06/25 06:43:06;;;;;;;0.20;0.20;;;;;;;25.32;40.98;99500.66;4779803;30;20056;-89
2022/06/25 06:45:33;;;;;;;0.20;0.20;;;;;;;25.41;40.62;99493.16;4747747;30;20060;-91
2022/06/25 06:48:00;;;;;;;0.20;0.20;;;;;;;25.49;40.35;99498.63;4747725;30;20060;-95
2022/06/25 06:50:28;;;;;;;0.20;0.20;;;;;;;25.53;40.06;99496.03;4755403;30;20071;-94
2022/06/25 06:52:55;;;;;;;0.20;0.20;;;;;;;25.56;39.88;99505.59;4753097;30;20059;-94
2022/06/25 06:55:22;;;;;;;0.20;0.20;;;;;;;25.61;39.23;99508.97;4763628;30;20056;-92
2022/06/25 06:57:49;;;;;;;0.20;0.20;;;;;;;25.72;38.64;99504.69;4759771;30;20075;-92
2022/06/25 07:00:17;;;;;;;0.20;0.20;;;;;;;25.83;38.72;99512.63;4758063;30;20086;-93
2022/06/25 07:02:44;;;;;;;0.20;0.20;;;;;;;25.68;38.56;99516.78;4759959;30;20058;-91
2022/06/25 07:05:12;;;;;;;0.20;0.20;;;;;;;25.44;38.89;99507.09;4760732;30;20119;-93
2022/06/25 07:07:39;;;;;;;0.20;0.20;;;;;;;25.36;39.18;99510.72;4757050;30;20051;-93
2022/06/25 07:10:06;;;;;;;0.20;0.20;;;;;;;25.42;39.78;99506.66;4755213;30;20052;-93
2022/06/25 07:12:33;;;;;;;0.20;0.20;;;;;;;25.62;39.32;99507.03;4758468;30;20075;-92
2022/06/25 07:15:00;;;;;;;0.20;0.20;;;;;;;25.82;38.72;99511.00;4756777;30;20143;-93
2022/06/25 07:17:29;;;;;;;0.20;0.20;;;;;;;25.90;38.10;99507.38;4761016;30;20060;-93
2022/06/25 07:19:56;;;;;;;0.20;0.20;;;;;;;25.94;37.95;99498.09;4757631;30;20509;-92
2022/06/25 07:22:24;;;;;;;0.20;0.20;;;;;;;25.96;38.46;99505.25;4768782;30;20052;-92
2022/06/25 07:24:54;;;;;;;0.20;0.20;;;;;;;25.86;38.23;99504.50;4767345;30;20060;-93
2022/06/25 07:27:21;;;;;;;0.20;0.20;;;;;;;26.03;37.58;99502.75;4768162;30;20052;-93
2022/06/25 07:29:48;;;;;;;0.20;0.20;;;;;;;26.21;37.61;99495.97;4761856;30;20139;-93
2022/06/25 07:32:16;;;;;;;0.20;0.20;;;;;;;26.23;38.46;99490.91;4763957;30;20497;-93
2022/06/25 07:34:44;;;;;;;0.20;0.20;;;;;;;26.35;37.88;99496.50;4757073;30;20135;-89
2022/06/25 07:37:12;;;;;;;0.20;0.20;;;;;;;26.31;37.52;99495.56;4757403;30;20427;-90
2022/06/25 07:39:39;;;;;;;0.20;0.20;;;;;;;26.46;37.96;99490.53;4756785;30;20115;-88
2022/06/25 07:42:06;;;;;;;0.20;0.20;;;;;;;26.61;37.21;99495.47;4755838;30;20199;-90
2022/06/25 07:44:34;;;;;;;0.20;0.20;;;;;;;26.78;36.71;99494.50;4755138;30;20086;-91
2022/06/25 07:47:01;;;;;;;0.20;0.20;;;;;;;26.98;36.23;99479.00;4753908;30;20060;-90
2022/06/25 07:49:28;;;;;;;0.20;0.20;;;;;;;27.10;36.11;99481.78;4756436;30;20535;-90
2022/06/25 07:52:04;;;;;;;0.20;0.20;;;;;;;27.21;35.92;99477.44;4755182;30;20060;-90
2022/06/25 07:54:33;;;;;;;0.20;0.20;;;;;;;27.32;35.98;99483.38;4754611;30;20083;-88
2022/06/25 07:57:00;;;;;;;0.20;0.20;;;;;;;27.25;35.37;99480.34;4753481;30;20106;-89
2022/06/25 07:59:28;;;;;;;0.30;0.30;;;;;;;27.08;36.89;99477.75;4740309;30;20051;-90
2022/06/25 08:01:56;;;;;;;0.30;0.30;;;;;;;27.30;35.44;99479.31;4744327;30;20611;-91
2022/06/25 08:04:23;;;;;;;0.30;0.30;;;;;;;27.47;35.05;99481.06;4758539;30;20143;-91
2022/06/25 08:06:50;;;;;;;0.30;0.30;;;;;;;27.39;35.28;99485.56;4754808;30;20102;-90
2022/06/25 08:09:20;;;;;;;0.30;0.30;;;;;;;27.48;35.33;99488.22;4755404;30;20052;-90
2022/06/25 08:11:48;;;;;;;0.30;0.30;;;;;;;27.75;34.90;99492.25;4755615;30;20492;-90
2022/06/25 08:14:15;;;;;;;0.30;0.30;;;;;;;27.84;34.61;99491.00;4755514;30;20098;-89
2022/06/25 08:16:44;;;;;;;0.30;0.30;;;;;;;27.93;34.90;99482.56;4757739;30;20082;-92
2022/06/25 08:19:15;;;;;;;0.30;0.30;;;;;;;28.09;34.83;99466.00;4757729;30;20083;-91
2022/06/25 08:21:42;;;;;;;0.30;0.30;;;;;;;28.27;34.00;99474.84;4744159;30;20056;-91
2022/06/25 08:24:09;;;;;;;0.28;0.28;;;;;;;28.48;34.40;99483.00;4756754;30;20052;-90
2022/06/25 08:26:44;;;;;;;0.30;0.30;;;;;;;28.49;34.03;99468.78;4760476;30;20057;-91
2022/06/25 08:29:12;;;;;;;0.20;0.20;;;;;;;28.35;33.71;99468.34;4761007;30;20676;-89
2022/06/25 08:31:42;;;;;;;0.30;0.30;;;;;;;28.47;34.17;99468.31;4757836;30;20060;-91
2022/06/25 08:34:09;;;;;;;0.30;0.30;;;;;;;28.64;33.62;99480.31;4755514;30;20086;-91
2022/06/25 08:36:36;;;;;;;0.30;0.30;;;;;;;28.78;32.70;99483.47;4756979;30;20056;-90
2022/06/25 08:39:03;;;;;;;0.30;0.30;;;;;;;29.01;32.47;99477.31;4756589;30;20048;-92
2022/06/25 08:41:31;;;;;;;0.30;0.30;;;;;;;29.03;32.41;99470.25;4728092;30;20075;-92
2022/06/25 08:43:58;;;;;;;0.30;0.30;;;;;;;29.17;32.62;99469.84;4754366;30;20118;-90
2022/06/25 08:46:25;;;;;;;0.30;0.30;;;;;;;29.08;33.09;99466.44;4755478;30;20083;-91
2022/06/25 08:48:56;;;;;;;0.30;0.30;;;;;;;29.06;33.22;99464.00;4758262;30;20052;-91
2022/06/25 08:51:27;;;;;;;0.30;0.30;;;;;;;29.76;32.23;99460.56;4764498;30;20086;-90
2022/06/25 08:53:56;;;;;;;0.30;0.30;;;;;;;30.09;31.35;99464.88;4757856;30;20090;-89
2022/06/25 08:56:29;;;;;;;0.30;0.30;;;;;;;30.12;31.38;99469.72;4754768;30;20082;-90
2022/06/25 08:58:56;;;;;;;0.30;0.30;;;;;;;30.40;29.94;99463.16;4755922;30;20060;-90
2022/06/25 09:01:23;;;;;;;0.30;0.30;;;;;;;30.60;30.86;99464.75;4753423;30;20105;-90
2022/06/25 09:03:51;;;;;;;0.30;0.30;;;;;;;31.08;29.82;99458.91;4753212;30;20079;-91
2022/06/25 09:06:21;;;;;;;0.30;0.30;;;;;;;31.44;30.12;99451.97;4754722;30;20070;-91
2022/06/25 09:09:13;;;;;;;0.30;0.30;;;;;;;31.65;29.89;99450.69;4755155;30;20397;-91
2022/06/25 09:11:58;;;;;;;0.30;0.30;;;;;;;31.68;30.11;99449.94;4753517;30;20056;-91
2022/06/25 09:14:28;;;;;;;0.30;0.30;;;;;;;31.83;30.07;99457.34;4739365;30;20054;-90
2022/06/25 09:16:57;;;;;;;0.10;0.10;;;;;;;31.17;30.49;99456.69;4755248;30;20058;-91
2022/06/25 09:19:37;;;;;;;0.30;0.30;;;;;;;30.73;30.65;99457.03;4741285;30;20521;-92
2022/06/25 09:22:15;;;;;;;0.30;0.30;;;;;;;31.60;28.95;99451.00;4758600;30;20071;-90
2022/06/25 09:24:57;;;;;;;0.30;0.30;;;;;;;31.64;29.04;99452.66;4758306;30;20150;-90
2022/06/25 09:27:40;;;;;;;0.30;0.30;;;;;;;31.71;28.88;99454.78;4759138;30;20088;-91
2022/06/25 09:30:14;;;;;;;0.30;0.30;;;;;;;31.71;28.70;99451.97;4741921;30;20082;-89
2022/06/25 09:32:43;;;;;;;0.30;0.30;;;;;;;32.13;28.26;99456.56;4756656;30;20064;-90
2022/06/25 09:35:10;;;;;;;0.30;0.30;;;;;;;32.66;27.76;99455.63;4760886;30;20495;-91
2022/06/25 09:37:38;;;;;;;0.30;0.30;;;;;;;32.98;27.12;99445.59;4767207;30;20073;-91
2022/06/25 09:40:16;;;;;;;0.30;0.30;;;;;;;33.30;26.36;99456.28;4740117;30;20129;-91
2022/06/25 09:42:46;;;;;;;0.30;0.30;;;;;;;33.42;26.54;99452.38;4753958;30;20075;-91
2022/06/25 09:45:13;;;;;;;0.20;0.20;;;;;;;32.33;27.48;99454.44;4758352;30;20063;-92
2022/06/25 09:47:46;;;;;;;;;;;;;;;32.14;27.67;99452.59;4755010;30;20090;-90
2022/06/25 09:50:16;;;;;;;0.30;0.30;;;;;;;32.44;27.04;99454.56;4757592;30;20051;-91
2022/06/25 09:52:54;;;;;;;0.30;0.30;;;;;;;32.84;26.97;99453.03;4754889;30;20055;-90
2022/06/25 09:55:28;;;;;;;0.30;0.30;;;;;;;33.39;25.96;99453.16;4753658;30;20147;-91
2022/06/25 09:57:55;;;;;;;0.30;0.30;;;;;;;34.18;25.55;99450.91;4755233;30;20568;-89
2022/06/25 10:00:24;;;;;;;0.30;0.30;;;;;;;34.29;25.56;99458.16;4754608;30;20428;-91
2022/06/25 10:02:52;;;;;;;0.30;0.30;;;;;;;34.40;24.84;99449.78;4741763;30;20060;-90
2022/06/25 10:05:35;;;;;;;0.30;0.30;;;;;;;34.19;25.47;99450.50;4752766;30;20059;-91
2022/06/25 10:08:07;;;;;;;0.40;0.40;;;;;;;33.94;24.92;99444.75;4753003;30;20063;-90
2022/06/25 10:10:41;;;;;;;0.38;0.38;;;;;;;33.04;26.09;99434.88;4751723;30;20139;-90
2022/06/25 10:13:09;;;;;;;0.30;0.30;;;;;;;33.40;26.31;99440.78;4757004;30;20090;-90
2022/06/25 10:15:37;;;;;;;0.40;0.40;;;;;;;34.04;25.51;99443.22;4754370;30;20056;-91
2022/06/25 10:18:11;;;;;;;0.40;0.40;;;;;;;34.08;24.34;99450.47;4753802;30;20060;-92
2022/06/25 10:20:40;;;;;;;0.10;0.10;;;;;;;32.91;26.63;99439.91;4752932;30;20129;-90
2022/06/25 10:23:09;;;;;;;0.10;0.10;;;;;;;31.87;28.38;99441.44;4754665;30;20056;-91
2022/06/25 10:25:37;;;;;;;0.10;0.10;;;;;;;31.03;29.73;99450.84;4757569;30;20063;-91
2022/06/25 10:28:09;;;;;;;0.40;0.40;;;;;;;31.19;29.32;99447.94;4760627;30;20528;-91
2022/06/25 10:30:51;;;;;;;0.40;0.40;;;;;;;32.88;27.08;99448.28;4758513;30;20270;-90
2022/06/25 10:33:26;;;;;;;0.40;0.40;;;;;;;33.63;26.03;99441.38;4762558;30;20494;-90
2022/06/25 10:35:58;;;;;;;0.40;0.40;;;;;;;34.44;24.86;99439.41;4759620;30;20153;-90
2022/06/25 10:38:26;;;;;;;0.30;0.30;;;;;;;34.07;25.32;99431.25;4759267;30;20091;-90
2022/06/25 10:40:57;;;;;;;0.30;0.30;;;;;;;35.03;23.87;99430.72;4759200;30;20052;-90
2022/06/25 10:43:37;;;;;;;0.10;0.10;;;;;;;34.75;24.44;99425.91;4758393;30;20060;-91
2022/06/25 10:46:36;;;;;;;0.10;0.10;;;;;;;33.19;26.45;99428.22;4743445;30;20448;-91
2022/06/25 10:49:10;;;;;;;0.40;0.40;;;;;;;34.16;25.74;99431.69;4740509;30;20082;-89
2022/06/25 10:51:42;;;;;;;0.40;0.40;;;;;;;35.31;24.47;99424.34;4757083;30;20072;-91
2022/06/25 10:54:27;;;;;;;0.40;0.40;;;;;;;35.79;23.67;99432.31;4755946;30;20048;-91
2022/06/25 10:56:58;;;;;;;0.40;0.40;;;;;;;36.79;22.87;99427.47;4758847;30;20507;-90
2022/06/25 10:59:34;;;;;;;0.30;0.30;;;;;;;37.15;22.20;99430.06;4760569;30;20508;-90
2022/06/25 11:02:04;;;;;;;0.40;0.40;;;;;;;37.43;21.76;99427.00;4754117;30;20056;-91
2022/06/25 11:04:32;;;;;;;0.50;0.50;;;;;;;37.86;21.12;99414.53;4755059;30;20052;-91
2022/06/25 11:07:13;;;;;;;0.50;0.50;;;;;;;37.93;20.86;99423.69;4755781;30;20056;-90
2022/06/25 11:09:56;;;;;;;0.40;0.40;;;;;;;37.66;20.84;99425.59;4754885;30;20056;-90
2022/06/25 11:12:24;;;;;;;0.40;0.40;;;;;;;37.87;20.24;99414.09;4755533;30;20052;-92
2022/06/25 11:15:04;;;;;;;0.30;0.30;;;;;;;38.33;20.30;99426.03;4755848;30;20529;-88
2022/06/25 11:17:32;;;;;;;0.40;0.40;;;;;;;38.56;20.43;99422.50;4757617;30;20518;-92
2022/06/25 11:20:07;;;;;;;0.40;0.40;;;;;;;38.65;20.21;99417.16;4755165;30;20052;-94
2022/06/25 11:22:48;;;;;;;0.10;0.10;;;;;;;37.82;20.68;99417.38;4755317;30;20084;-91
2022/06/25 11:30:50;;;;;;;0.10;0.10;;;;;;;33.89;24.85;99426.31;4766441;30;20059;-92
2022/06/25 11:33:18;;;;;;;0.10;0.10;;;;;;;33.21;26.32;99417.44;4747240;30;20158;-93
2022/06/25 11:35:45;;;;;;;0.20;0.20;;;;;;;33.00;26.77;99425.66;4756765;30;20358;-90
2022/06/25 11:38:20;;;;;;;0.45;0.45;;;;;;;34.20;25.32;99412.91;4754585;30;20087;-88
2022/06/25 11:40:47;;;;;;;0.50;0.50;;;;;;;35.92;23.92;99420.66;4754147;30;20147;-91
2022/06/25 11:43:15;;;;;;;0.70;0.70;;;;;;;37.00;22.34;99427.34;4755389;30;20066;-89
2022/06/25 11:46:13;;;;;;;0.40;0.40;;;;;;;37.33;22.22;99418.66;4746472;30;20436;-90
2022/06/25 11:48:40;;;;;;;0.40;0.40;;;;;;;37.54;21.29;99423.31;4721184;30;20084;-88
2022/06/25 11:51:08;;;;;;;0.40;0.40;;;;;;;38.08;21.43;99417.91;4713935;30;20613;-91
2022/06/25 11:53:35;;;;;;;0.40;0.40;;;;;;;38.63;20.33;99419.59;4736180;30;20530;-92
2022/06/25 11:56:04;;;;;;;0.40;0.40;;;;;;;38.66;19.42;99418.75;4734350;30;20122;-90
2022/06/25 11:58:34;;;;;;;0.40;0.40;;;;;;;39.35;19.27;99413.66;4718008;30;20078;-92
2022/06/25 12:01:05;;;;;;;0.50;0.50;;;;;;;39.27;19.03;99419.81;4739473;30;20114;-89
2022/06/25 12:03:33;;;;;;;0.52;0.52;;;;;;;38.94;19.26;99411.09;4737116;30;20065;-91
2022/06/25 12:06:01;;;;;;;0.20;0.20;;;;;;;38.42;20.02;99414.25;4732775;30;20130;-91
2022/06/25 12:08:28;;;;;;;0.60;0.60;;;;;;;37.92;20.53;99410.81;4719228;30;20092;-92